sensor_id;sensor_type;location;lat;lon;timestamp;pressure;altitude;pressure_sealevel;temperature;humidity
17054;BME280;8643;48.824;11.422;2022-12-07T00:01:47;96868.59;;;1.18;100.00
17054;BME280;8643;48.824;11.422;2022-12-07T00:04:18;96867.25;;;1.21;100.00
17054;BME280;8643;48.824;11.422;2022-12-07T00:06:51;96868.88;;;1.22;100.00
17054;BME280;8643;48.824;11.422;2022-12-07T00:09:20;96865.13;;;1.13;100.00
17054;BME280;8643;48.824;11.422;2022-12-07T00:11:50;96861.06;;;1.10;100.00
17054;BME280;8643;48.824;11.422;2022-12-07T00:14:20;96867.81;;;1.13;100.00
17054;BME280;8643;48.824;11.422;2022-12-07T00:16:51;96871.59;;;1.12;100.00
17054;BME280;8643;48.824;11.422;2022-12-07T00:19:20;96864.28;;;1.17;100.00
17054;BME280;8643;48.824;11.422;2022-12-07T00:21:48;96865.09;;;1.18;100.00
17054;BME280;8643;48.824;11.422;2022-12-07T00:24:17;96857.81;;;1.18;100.00
17054;BME280;8643;48.824;11.422;2022-12-07T00:26:45;96862.41;;;1.18;100.00
17054;BME280;8643;48.824;11.422;2022-12-07T00:29:16;96855.13;;;1.13;100.00
17054;BME280;8643;48.824;11.422;2022-12-07T00:31:45;96858.63;;;1.14;100.00
17054;BME280;8643;48.824;11.422;2022-12-07T00:34:19;96862.13;;;1.09;100.00
17054;BME280;8643;48.824;11.422;2022-12-07T00:36:49;96853.53;;;1.07;100.00
17054;BME280;8643;48.824;11.422;2022-12-07T00:39:17;96855.16;;;1.03;100.00
17054;BME280;8643;48.824;11.422;2022-12-07T00:41:46;96844.91;;;1.05;100.00
17054;BME280;8643;48.824;11.422;2022-12-07T00:44:14;96853.00;;;1.05;100.00
17054;BME280;8643;48.824;11.422;2022-12-07T00:46:43;96858.38;;;1.05;100.00
17054;BME280;8643;48.824;11.422;2022-12-07T00:49:12;96862.16;;;1.04;100.00
17054;BME280;8643;48.824;11.422;2022-12-07T00:51:42;96857.84;;;1.03;100.00
17054;BME280;8643;48.824;11.422;2022-12-07T00:54:11;96849.50;;;1.04;100.00
17054;BME280;8643;48.824;11.422;2022-12-07T00:56:40;96861.09;;;1.00;100.00
17054;BME280;8643;48.824;11.422;2022-12-07T00:59:13;96856.25;;;0.97;100.00
17054;BME280;8643;48.824;11.422;2022-12-07T01:01:42;96857.34;;;0.85;100.00
17054;BME280;8643;48.824;11.422;2022-12-07T01:04:11;96862.16;;;0.78;100.00
17054;BME280;8643;48.824;11.422;2022-12-07T01:06:39;96860.84;;;0.76;100.00
17054;BME280;8643;48.824;11.422;2022-12-07T01:09:09;96865.97;;;0.77;100.00
17054;BME280;8643;48.824;11.422;2022-12-07T01:11:37;96866.78;;;0.72;100.00
17054;BME280;8643;48.824;11.422;2022-12-07T01:14:06;96867.28;;;0.80;100.00
17054;BME280;8643;48.824;11.422;2022-12-07T01:16:34;96864.88;;;0.78;100.00
17054;BME280;8643;48.824;11.422;2022-12-07T01:19:03;96868.94;;;0.76;100.00
17054;BME280;8643;48.824;11.422;2022-12-07T01:21:34;96869.47;;;0.78;100.00
17054;BME280;8643;48.824;11.422;2022-12-07T01:24:09;96876.22;;;0.80;100.00
17054;BME280;8643;48.824;11.422;2022-12-07T01:26:39;96877.00;;;0.76;100.00
17054;BME280;8643;48.824;11.422;2022-12-07T01:29:08;96872.69;;;0.80;100.00
17054;BME280;8643;48.824;11.422;2022-12-07T01:31:36;96874.03;;;0.87;100.00
17054;BME280;8643;48.824;11.422;2022-12-07T01:34:04;96869.72;;;0.86;100.00
17054;BME280;8643;48.824;11.422;2022-12-07T01:36:35;96874.84;;;0.88;100.00
17054;BME280;8643;48.824;11.422;2022-12-07T01:39:06;96869.44;;;0.88;100.00
17054;BME280;8643;48.824;11.422;2022-12-07T01:41:40;96874.84;;;0.88;100.00
17054;BME280;8643;48.824;11.422;2022-12-07T01:44:19;96873.78;;;0.84;100.00
17054;BME280;8643;48.824;11.422;2022-12-07T01:46:50;96866.22;;;0.81;100.00
17054;BME280;8643;48.824;11.422;2022-12-07T01:49:28;96877.25;;;0.89;100.00
17054;BME280;8643;48.824;11.422;2022-12-07T01:52:08;96873.25;;;0.87;100.00
17054;BME280;8643;48.824;11.422;2022-12-07T01:54:40;96874.03;;;0.87;100.00
17054;BME280;8643;48.824;11.422;2022-12-07T01:57:11;96874.03;;;0.93;100.00
17054;BME280;8643;48.824;11.422;2022-12-07T01:59:42;96871.06;;;0.94;100.00
17054;BME280;8643;48.824;11.422;2022-12-07T02:02:20;96870.53;;;0.92;100.00
17054;BME280;8643;48.824;11.422;2022-12-07T02:04:52;96867.84;;;0.87;100.00
17054;BME280;8643;48.824;11.422;2022-12-07T02:07:23;96870.53;;;0.82;100.00
17054;BME280;8643;48.824;11.422;2022-12-07T02:09:52;96871.88;;;0.79;100.00
17054;BME280;8643;48.824;11.422;2022-12-07T02:12:23;96871.88;;;0.79;100.00
17054;BME280;8643;48.824;11.422;2022-12-07T02:14:52;96869.72;;;0.76;100.00
17054;BME280;8643;48.824;11.422;2022-12-07T02:17:28;96866.50;;;0.79;100.00
17054;BME280;8643;48.824;11.422;2022-12-07T02:20:21;96867.03;;;0.76;100.00
17054;BME280;8643;48.824;11.422;2022-12-07T02:23:31;96869.19;;;0.84;100.00
17054;BME280;8643;48.824;11.422;2022-12-07T02:26:50;96856.81;;;0.83;100.00
17054;BME280;8643;48.824;11.422;2022-12-07T02:29:28;96860.31;;;0.79;100.00
17054;BME280;8643;48.824;11.422;2022-12-07T02:32:08;96853.81;;;0.75;100.00
17054;BME280;8643;48.824;11.422;2022-12-07T02:34:48;96854.66;;;0.75;100.00
17054;BME280;8643;48.824;11.422;2022-12-07T02:37:29;96866.50;;;0.69;100.00
17054;BME280;8643;48.824;11.422;2022-12-07T02:40:08;96865.69;;;0.68;100.00
17054;BME280;8643;48.824;11.422;2022-12-07T02:42:45;96860.03;;;0.65;100.00
17054;BME280;8643;48.824;11.422;2022-12-07T02:45:21;96859.22;;;0.64;100.00
17054;BME280;8643;48.824;11.422;2022-12-07T02:47:53;96857.88;;;0.67;100.00
17054;BME280;8643;48.824;11.422;2022-12-07T02:50:26;96852.22;;;0.58;100.00
17054;BME280;8643;48.824;11.422;2022-12-07T02:52:55;96854.91;;;0.58;100.00
17054;BME280;8643;48.824;11.422;2022-12-07T02:55:29;96853.84;;;0.59;100.00
17054;BME280;8643;48.824;11.422;2022-12-07T02:58:18;96852.47;;;0.62;100.00
17054;BME280;8643;48.824;11.422;2022-12-07T03:01:01;96849.81;;;0.67;100.00
17054;BME280;8643;48.824;11.422;2022-12-07T03:03:37;96851.66;;;0.66;100.00
17054;BME280;8643;48.824;11.422;2022-12-07T03:06:16;96850.06;;;0.76;100.00
17054;BME280;8643;48.824;11.422;2022-12-07T03:08:56;96839.53;;;0.79;100.00
17054;BME280;8643;48.824;11.422;2022-12-07T03:11:33;96835.22;;;0.68;100.00
17054;BME280;8643;48.824;11.422;2022-12-07T03:14:15;96824.97;;;0.70;100.00
17054;BME280;8643;48.824;11.422;2022-12-07T03:16:52;96836.84;;;0.69;100.00
17054;BME280;8643;48.824;11.422;2022-12-07T03:19:25;96829.84;;;0.68;100.00
17054;BME280;8643;48.824;11.422;2022-12-07T03:22:00;96836.84;;;0.53;100.00
17054;BME280;8643;48.824;11.422;2022-12-07T03:24:35;96838.22;;;0.56;100.00
17054;BME280;8643;48.824;11.422;2022-12-07T03:27:08;96837.38;;;0.50;100.00
17054;BME280;8643;48.824;11.422;2022-12-07T03:29:43;96828.75;;;0.53;100.00
17054;BME280;8643;48.824;11.422;2022-12-07T03:32:21;96833.09;;;0.54;100.00
17054;BME280;8643;48.824;11.422;2022-12-07T03:35:01;96835.50;;;0.56;100.00
17054;BME280;8643;48.824;11.422;2022-12-07T03:37:35;96841.69;;;0.57;100.00
17054;BME280;8643;48.824;11.422;2022-12-07T03:40:13;96837.94;;;0.63;100.00
17054;BME280;8643;48.824;11.422;2022-12-07T03:42:44;96837.13;;;0.62;100.00
17054;BME280;8643;48.824;11.422;2022-12-07T03:45:14;96835.78;;;0.65;100.00
17054;BME280;8643;48.824;11.422;2022-12-07T03:47:54;96835.25;;;0.63;100.00
17054;BME280;8643;48.824;11.422;2022-12-07T03:50:38;96837.94;;;0.68;100.00
17054;BME280;8643;48.824;11.422;2022-12-07T03:53:15;96847.66;;;0.64;100.00
17054;BME280;8643;48.824;11.422;2022-12-07T03:55:46;96847.91;;;0.57;100.00
17054;BME280;8643;48.824;11.422;2022-12-07T03:58:19;96840.91;;;0.56;100.00
17054;BME280;8643;48.824;11.422;2022-12-07T04:00:50;96835.78;;;0.54;100.00
17054;BME280;8643;48.824;11.422;2022-12-07T04:03:20;96843.84;;;0.65;100.00
17054;BME280;8643;48.824;11.422;2022-12-07T04:05:49;96840.09;;;0.61;100.00
17054;BME280;8643;48.824;11.422;2022-12-07T04:08:17;96842.25;;;0.48;100.00
17054;BME280;8643;48.824;11.422;2022-12-07T04:10:46;96829.88;;;0.47;100.00
17054;BME280;8643;48.824;11.422;2022-12-07T04:13:15;96819.09;;;0.47;100.00
17054;BME280;8643;48.824;11.422;2022-12-07T04:15:43;96815.56;;;0.47;100.00
17054;BME280;8643;48.824;11.422;2022-12-07T04:18:12;96822.03;;;0.51;100.00
17054;BME280;8643;48.824;11.422;2022-12-07T04:20:42;96820.41;;;0.45;100.00
17054;BME280;8643;48.824;11.422;2022-12-07T04:23:11;96829.31;;;0.30;100.00
17054;BME280;8643;48.824;11.422;2022-12-07T04:25:40;96837.38;;;0.25;100.00
17054;BME280;8643;48.824;11.422;2022-12-07T04:28:09;96840.06;;;0.20;100.00
17054;BME280;8643;48.824;11.422;2022-12-07T04:30:37;96841.41;;;0.12;100.00
17054;BME280;8643;48.824;11.422;2022-12-07T04:33:05;96828.75;;;0.07;100.00
17054;BME280;8643;48.824;11.422;2022-12-07T04:35:35;96829.25;;;-0.01;100.00
17054;BME280;8643;48.824;11.422;2022-12-07T04:38:05;96825.19;;;-0.09;100.00
17054;BME280;8643;48.824;11.422;2022-12-07T04:40:34;96823.03;;;-0.17;100.00
17054;BME280;8643;48.824;11.422;2022-12-07T04:43:03;96814.16;;;-0.23;100.00
17054;BME280;8643;48.824;11.422;2022-12-07T04:45:32;96816.00;;;-0.28;100.00
17054;BME280;8643;48.824;11.422;2022-12-07T04:48:00;96814.34;;;-0.34;100.00
17054;BME280;8643;48.824;11.422;2022-12-07T04:50:28;96815.69;;;-0.42;100.00
17054;BME280;8643;48.824;11.422;2022-12-07T04:52:57;96819.47;;;-0.43;100.00
17054;BME280;8643;48.824;11.422;2022-12-07T04:55:26;96816.22;;;-0.45;100.00
17054;BME280;8643;48.824;11.422;2022-12-07T04:57:55;96805.97;;;-0.53;100.00
17054;BME280;8643;48.824;11.422;2022-12-07T05:00:23;96807.31;;;-0.56;100.00
17054;BME280;8643;48.824;11.422;2022-12-07T05:02:52;96810.53;;;-0.54;100.00
17054;BME280;8643;48.824;11.422;2022-12-07T05:05:20;96797.31;;;-0.61;100.00
17054;BME280;8643;48.824;11.422;2022-12-07T05:07:48;96804.06;;;-0.63;100.00
17054;BME280;8643;48.824;11.422;2022-12-07T05:10:17;96812.09;;;-0.68;100.00
17054;BME280;8643;48.824;11.422;2022-12-07T05:12:47;96818.53;;;-0.75;100.00
17054;BME280;8643;48.824;11.422;2022-12-07T05:15:16;96817.41;;;-0.84;100.00
17054;BME280;8643;48.824;11.422;2022-12-07T05:17:45;96825.19;;;-0.87;100.00
17054;BME280;8643;48.824;11.422;2022-12-07T05:20:13;96814.66;;;-0.94;100.00
17054;BME280;8643;48.824;11.422;2022-12-07T05:22:42;96807.63;;;-1.00;100.00
17054;BME280;8643;48.824;11.422;2022-12-07T05:25:10;96804.94;;;-1.05;100.00
17054;BME280;8643;48.824;11.422;2022-12-07T05:27:39;96790.38;;;-1.09;100.00
17054;BME280;8643;48.824;11.422;2022-12-07T05:30:10;96784.97;;;-1.15;100.00
17054;BME280;8643;48.824;11.422;2022-12-07T05:32:38;96787.94;;;-1.11;100.00
17054;BME280;8643;48.824;11.422;2022-12-07T05:35:08;96789.03;;;-1.12;100.00
17054;BME280;8643;48.824;11.422;2022-12-07T05:37:37;96783.09;;;-1.14;100.00
17054;BME280;8643;48.824;11.422;2022-12-07T05:40:06;96790.06;;;-1.18;100.00
17054;BME280;8643;48.824;11.422;2022-12-07T05:42:35;96796.53;;;-1.14;100.00
17054;BME280;8643;48.824;11.422;2022-12-07T05:45:04;96802.72;;;-1.14;100.00
17054;BME280;8643;48.824;11.422;2022-12-07T05:47:34;96809.38;;;-1.21;100.00
17054;BME280;8643;48.824;11.422;2022-12-07T05:50:03;96806.41;;;-1.25;100.00
17054;BME280;8643;48.824;11.422;2022-12-07T05:52:32;96803.06;;;-1.42;100.00
17054;BME280;8643;48.824;11.422;2022-12-07T05:55:01;96807.72;;;-1.65;100.00
17054;BME280;8643;48.824;11.422;2022-12-07T05:57:29;96799.53;;;-1.86;100.00
17054;BME280;8643;48.824;11.422;2022-12-07T05:59:58;96803.69;;;-2.00;100.00
17054;BME280;8643;48.824;11.422;2022-12-07T06:02:25;96794.38;;;-2.19;100.00
17054;BME280;8643;48.824;11.422;2022-12-07T06:04:55;96802.00;;;-2.33;100.00
17054;BME280;8643;48.824;11.422;2022-12-07T06:07:24;96803.03;;;-2.40;100.00
17054;BME280;8643;48.824;11.422;2022-12-07T06:09:52;96804.88;;;-2.40;100.00
17054;BME280;8643;48.824;11.422;2022-12-07T06:12:20;96809.69;;;-2.42;100.00
17054;BME280;8643;48.824;11.422;2022-12-07T06:15:06;96804.84;;;-2.45;100.00
17054;BME280;8643;48.824;11.422;2022-12-07T06:17:35;96810.75;;;-2.43;100.00
17054;BME280;8643;48.824;11.422;2022-12-07T06:20:06;96811.59;;;-2.43;100.00
17054;BME280;8643;48.824;11.422;2022-12-07T06:22:35;96812.28;;;-2.52;100.00
17054;BME280;8643;48.824;11.422;2022-12-07T06:25:05;96807.75;;;-2.47;100.00
17054;BME280;8643;48.824;11.422;2022-12-07T06:27:35;96812.13;;;-2.41;100.00
17054;BME280;8643;48.824;11.422;2022-12-07T06:30:05;96824.22;;;-2.38;100.00
17054;BME280;8643;48.824;11.422;2022-12-07T06:32:37;96825.00;;;-2.43;100.00
17054;BME280;8643;48.824;11.422;2022-12-07T06:35:07;96819.63;;;-2.43;100.00
17054;BME280;8643;48.824;11.422;2022-12-07T06:37:36;96820.47;;;-2.37;100.00
17054;BME280;8643;48.824;11.422;2022-12-07T06:40:06;96832.09;;;-2.31;100.00
17054;BME280;8643;48.824;11.422;2022-12-07T06:42:35;96836.34;;;-2.08;100.00
17054;BME280;8643;48.824;11.422;2022-12-07T06:45:04;96830.28;;;-1.98;100.00
17054;BME280;8643;48.824;11.422;2022-12-07T06:47:33;96831.94;;;-1.92;100.00
17054;BME280;8643;48.824;11.422;2022-12-07T06:50:11;96833.50;;;-1.96;100.00
17054;BME280;8643;48.824;11.422;2022-12-07T06:52:40;96836.44;;;-1.98;100.00
17054;BME280;8643;48.824;11.422;2022-12-07T06:55:08;96833.75;;;-1.98;100.00
17054;BME280;8643;48.824;11.422;2022-12-07T06:57:37;96826.25;;;-1.96;100.00
17054;BME280;8643;48.824;11.422;2022-12-07T07:00:07;96828.69;;;-1.94;100.00
17054;BME280;8643;48.824;11.422;2022-12-07T07:02:36;96835.72;;;-1.88;100.00
17054;BME280;8643;48.824;11.422;2022-12-07T07:05:05;96839.00;;;-1.81;100.00
17054;BME280;8643;48.824;11.422;2022-12-07T07:07:35;96839.66;;;-1.69;100.00
17054;BME280;8643;48.824;11.422;2022-12-07T07:10:23;96840.81;;;-1.59;100.00
17054;BME280;8643;48.824;11.422;2022-12-07T07:12:51;96848.69;;;-1.48;100.00
17054;BME280;8643;48.824;11.422;2022-12-07T07:15:23;96850.91;;;-1.39;100.00
17054;BME280;8643;48.824;11.422;2022-12-07T07:17:52;96849.63;;;-1.32;100.00
17054;BME280;8643;48.824;11.422;2022-12-07T07:20:21;96855.25;;;-1.33;100.00
17054;BME280;8643;48.824;11.422;2022-12-07T07:22:54;96849.91;;;-1.28;100.00
17054;BME280;8643;48.824;11.422;2022-12-07T07:25:22;96841.66;;;-1.16;100.00
17054;BME280;8643;48.824;11.422;2022-12-07T07:27:51;96851.69;;;-1.01;100.00
17054;BME280;8643;48.824;11.422;2022-12-07T07:30:20;96855.78;;;-0.94;100.00
17054;BME280;8643;48.824;11.422;2022-12-07T07:32:49;96860.66;;;-0.85;100.00
17054;BME280;8643;48.824;11.422;2022-12-07T07:35:17;96855.28;;;-0.85;100.00
17054;BME280;8643;48.824;11.422;2022-12-07T07:37:46;96859.13;;;-0.76;100.00
17054;BME280;8643;48.824;11.422;2022-12-07T07:40:16;96851.94;;;-0.60;100.00
17054;BME280;8643;48.824;11.422;2022-12-07T07:42:47;96856.56;;;-0.50;100.00
17054;BME280;8643;48.824;11.422;2022-12-07T07:45:16;96853.66;;;-0.39;100.00
17054;BME280;8643;48.824;11.422;2022-12-07T07:47:45;96850.47;;;-0.25;100.00
17054;BME280;8643;48.824;11.422;2022-12-07T07:50:14;96860.97;;;-0.13;100.00
17054;BME280;8643;48.824;11.422;2022-12-07T07:52:43;96863.13;;;-0.21;100.00
17054;BME280;8643;48.824;11.422;2022-12-07T07:55:12;96869.31;;;-0.15;100.00
17054;BME280;8643;48.824;11.422;2022-12-07T07:57:42;96865.88;;;0.00;100.00
17054;BME280;8643;48.824;11.422;2022-12-07T08:00:18;96861.91;;;0.39;100.00
17054;BME280;8643;48.824;11.422;2022-12-07T08:02:46;96853.50;;;1.12;100.00
17054;BME280;8643;48.824;11.422;2022-12-07T08:05:15;96866.25;;;1.82;100.00
17054;BME280;8643;48.824;11.422;2022-12-07T08:07:44;96873.03;;;1.79;100.00
17054;BME280;8643;48.824;11.422;2022-12-07T08:10:13;96863.91;;;1.60;100.00
17054;BME280;8643;48.824;11.422;2022-12-07T08:12:43;96866.44;;;1.31;100.00
17054;BME280;8643;48.824;11.422;2022-12-07T08:15:30;96873.50;;;0.90;100.00
17054;BME280;8643;48.824;11.422;2022-12-07T08:17:59;96874.84;;;0.72;100.00
17054;BME280;8643;48.824;11.422;2022-12-07T08:20:30;96878.91;;;0.44;100.00
17054;BME280;8643;48.824;11.422;2022-12-07T08:23:00;96874.03;;;0.41;100.00
17054;BME280;8643;48.824;11.422;2022-12-07T08:25:29;96877.25;;;0.43;100.00
17054;BME280;8643;48.824;11.422;2022-12-07T08:28:00;96886.41;;;0.42;100.00
17054;BME280;8643;48.824;11.422;2022-12-07T08:30:29;96877.78;;;0.45;100.00
17054;BME280;8643;48.824;11.422;2022-12-07T08:32:58;96889.38;;;0.30;100.00
17054;BME280;8643;48.824;11.422;2022-12-07T08:35:27;96889.63;;;0.18;100.00
17054;BME280;8643;48.824;11.422;2022-12-07T08:37:55;96896.59;;;0.09;100.00
17054;BME280;8643;48.824;11.422;2022-12-07T08:40:25;96891.25;;;0.25;100.00
17054;BME280;8643;48.824;11.422;2022-12-07T08:42:53;96886.69;;;0.35;100.00
17054;BME280;8643;48.824;11.422;2022-12-07T08:45:23;96881.00;;;0.16;100.00
17054;BME280;8643;48.824;11.422;2022-12-07T08:47:58;96886.66;;;0.25;100.00
17054;BME280;8643;48.824;11.422;2022-12-07T08:50:29;96890.41;;;0.19;100.00
17054;BME280;8643;48.824;11.422;2022-12-07T08:53:00;96886.94;;;0.34;100.00
17054;BME280;8643;48.824;11.422;2022-12-07T08:55:29;96885.06;;;0.40;100.00
17054;BME280;8643;48.824;11.422;2022-12-07T08:57:59;96884.81;;;0.51;100.00
17054;BME280;8643;48.824;11.422;2022-12-07T09:00:29;96892.91;;;0.62;100.00
17054;BME280;8643;48.824;11.422;2022-12-07T09:02:57;96893.47;;;0.74;100.00
17054;BME280;8643;48.824;11.422;2022-12-07T09:05:26;96890.22;;;0.77;100.00
17054;BME280;8643;48.824;11.422;2022-12-07T09:07:56;96895.34;;;0.73;100.00
17054;BME280;8643;48.824;11.422;2022-12-07T09:10:27;96893.72;;;0.78;100.00
17054;BME280;8643;48.824;11.422;2022-12-07T09:12:56;96885.91;;;0.81;100.00
17054;BME280;8643;48.824;11.422;2022-12-07T09:15:29;96883.75;;;0.83;100.00
17054;BME280;8643;48.824;11.422;2022-12-07T09:17:58;96885.91;;;0.97;100.00
17054;BME280;8643;48.824;11.422;2022-12-07T09:20:26;96889.13;;;1.04;100.00
17054;BME280;8643;48.824;11.422;2022-12-07T09:22:55;96884.81;;;1.08;100.00
17054;BME280;8643;48.824;11.422;2022-12-07T09:25:23;96894.50;;;1.09;100.00
17054;BME280;8643;48.824;11.422;2022-12-07T09:27:56;96877.22;;;1.20;100.00
17054;BME280;8643;48.824;11.422;2022-12-07T09:30:25;96881.25;;;1.33;100.00
17054;BME280;8643;48.824;11.422;2022-12-07T09:32:56;96874.53;;;1.31;100.00
17054;BME280;8643;48.824;11.422;2022-12-07T09:35:26;96880.47;;;1.22;100.00
17054;BME280;8643;48.824;11.422;2022-12-07T09:37:54;96875.63;;;1.19;100.00
17054;BME280;8643;48.824;11.422;2022-12-07T09:40:23;96877.75;;;1.17;100.00
17054;BME280;8643;48.824;11.422;2022-12-07T09:42:54;96875.63;;;1.24;100.00
17054;BME280;8643;48.824;11.422;2022-12-07T09:45:28;96874.25;;;1.32;100.00
17054;BME280;8643;48.824;11.422;2022-12-07T09:48:02;96868.28;;;1.35;100.00
17054;BME280;8643;48.824;11.422;2022-12-07T09:50:31;96862.91;;;1.40;100.00
17054;BME280;8643;48.824;11.422;2022-12-07T09:53:12;96864.81;;;1.30;100.00
17054;BME280;8643;48.824;11.422;2022-12-07T09:55:43;96863.75;;;1.20;100.00
17054;BME280;8643;48.824;11.422;2022-12-07T09:58:20;96853.25;;;1.24;100.00
17054;BME280;8643;48.824;11.422;2022-12-07T10:00:50;96853.47;;;1.33;100.00
17054;BME280;8643;48.824;11.422;2022-12-07T10:03:23;96851.56;;;1.38;100.00
17054;BME280;8643;48.824;11.422;2022-12-07T10:05:52;96847.00;;;1.28;100.00
17054;BME280;8643;48.824;11.422;2022-12-07T10:08:20;96848.91;;;1.28;100.00
17054;BME280;8643;48.824;11.422;2022-12-07T10:10:52;96846.66;;;1.56;100.00
17054;BME280;8643;48.824;11.422;2022-12-07T10:13:34;96849.31;;;1.61;100.00
17054;BME280;8643;48.824;11.422;2022-12-07T10:16:04;96844.72;;;1.67;100.00
17054;BME280;8643;48.824;11.422;2022-12-07T10:18:37;96839.66;;;1.50;100.00
17054;BME280;8643;48.824;11.422;2022-12-07T10:21:11;96839.34;;;1.61;100.00
17054;BME280;8643;48.824;11.422;2022-12-07T10:23:42;96837.66;;;1.76;100.00
17054;BME280;8643;48.824;11.422;2022-12-07T10:26:31;96833.78;;;1.92;100.00
17054;BME280;8643;48.824;11.422;2022-12-07T10:29:04;96830.81;;;1.94;100.00
17054;BME280;8643;48.824;11.422;2022-12-07T10:31:43;96829.91;;;1.59;100.00
17054;BME280;8643;48.824;11.422;2022-12-07T10:34:23;96828.56;;;1.56;100.00
17054;BME280;8643;48.824;11.422;2022-12-07T10:36:53;96826.69;;;1.57;100.00
17054;BME280;8643;48.824;11.422;2022-12-07T10:39:23;96826.97;;;1.50;100.00
17054;BME280;8643;48.824;11.422;2022-12-07T10:41:56;96824.28;;;1.50;100.00
17054;BME280;8643;48.824;11.422;2022-12-07T10:44:28;96824.84;;;1.42;100.00
17054;BME280;8643;48.824;11.422;2022-12-07T10:47:14;96818.84;;;1.55;100.00
17054;BME280;8643;48.824;11.422;2022-12-07T10:50:19;96817.75;;;1.56;100.00
17054;BME280;8643;48.824;11.422;2022-12-07T10:53:21;96811.19;;;1.73;100.00
17054;BME280;8643;48.824;11.422;2022-12-07T10:56:15;96806.78;;;1.92;100.00
17054;BME280;8643;48.824;11.422;2022-12-07T10:59:04;96816.19;;;2.00;100.00
17054;BME280;8643;48.824;11.422;2022-12-07T11:01:46;96809.13;;;2.09;100.00
17054;BME280;8643;48.824;11.422;2022-12-07T11:04:31;96810.06;;;1.89;100.00
17054;BME280;8643;48.824;11.422;2022-12-07T11:07:12;96810.03;;;1.94;100.00
17054;BME280;8643;48.824;11.422;2022-12-07T11:09:59;96808.66;;;1.97;100.00
17054;BME280;8643;48.824;11.422;2022-12-07T11:13:07;96797.56;;;1.98;100.00
17054;BME280;8643;48.824;11.422;2022-12-07T11:15:55;96798.88;;;2.06;100.00
17054;BME280;8643;48.824;11.422;2022-12-07T11:18:32;96797.81;;;2.02;100.00
17054;BME280;8643;48.824;11.422;2022-12-07T11:21:13;96791.66;;;1.96;100.00
17054;BME280;8643;48.824;11.422;2022-12-07T11:23:54;96785.38;;;2.06;100.00
17054;BME280;8643;48.824;11.422;2022-12-07T11:26:41;96781.31;;;2.04;100.00
17054;BME280;8643;48.824;11.422;2022-12-07T11:30:03;96788.91;;;2.01;100.00
17054;BME280;8643;48.824;11.422;2022-12-07T11:32:51;96789.63;;;2.17;100.00
17054;BME280;8643;48.824;11.422;2022-12-07T11:35:36;96779.75;;;1.97;100.00
17054;BME280;8643;48.824;11.422;2022-12-07T11:38:14;96771.34;;;2.04;100.00
17054;BME280;8643;48.824;11.422;2022-12-07T11:40:50;96770.84;;;1.97;100.00
17054;BME280;8643;48.824;11.422;2022-12-07T11:43:26;96776.72;;;2.09;100.00
17054;BME280;8643;48.824;11.422;2022-12-07T11:46:02;96774.81;;;2.10;100.00
17054;BME280;8643;48.824;11.422;2022-12-07T11:48:37;96772.88;;;2.15;100.00
17054;BME280;8643;48.824;11.422;2022-12-07T11:51:10;96772.88;;;2.15;100.00
17054;BME280;8643;48.824;11.422;2022-12-07T11:53:45;96760.47;;;2.14;100.00
17054;BME280;8643;48.824;11.422;2022-12-07T11:56:20;96766.94;;;2.18;100.00
17054;BME280;8643;48.824;11.422;2022-12-07T11:58:54;96764.22;;;2.18;100.00
17054;BME280;8643;48.824;11.422;2022-12-07T12:01:37;96776.09;;;2.17;100.00
17054;BME280;8643;48.824;11.422;2022-12-07T12:04:23;96769.41;;;2.10;100.00
17054;BME280;8643;48.824;11.422;2022-12-07T12:06:53;96763.63;;;2.22;100.00
17054;BME280;8643;48.824;11.422;2022-12-07T12:09:29;96768.19;;;2.26;100.00
17054;BME280;8643;48.824;11.422;2022-12-07T12:12:31;96764.66;;;2.31;100.00
17054;BME280;8643;48.824;11.422;2022-12-07T12:15:46;96760.13;;;2.21;100.00
17054;BME280;8643;48.824;11.422;2022-12-07T12:18:58;96754.22;;;2.19;100.00
17054;BME280;8643;48.824;11.422;2022-12-07T12:21:32;96759.06;;;2.22;100.00
17054;BME280;8643;48.824;11.422;2022-12-07T12:24:04;96753.59;;;2.27;100.00
17054;BME280;8643;48.824;11.422;2022-12-07T12:26:38;96759.47;;;2.34;100.00
17054;BME280;8643;48.824;11.422;2022-12-07T12:29:22;96750.19;;;2.46;100.00
17054;BME280;8643;48.824;11.422;2022-12-07T12:32:11;96751.59;;;2.43;100.00
17054;BME280;8643;48.824;11.422;2022-12-07T12:35:01;96754.06;;;2.34;100.00
17054;BME280;8643;48.824;11.422;2022-12-07T12:37:44;96760.59;;;2.33;100.00
17054;BME280;8643;48.824;11.422;2022-12-07T12:40:39;96756.44;;;2.46;100.00
17054;BME280;8643;48.824;11.422;2022-12-07T12:46:52;96757.22;;;2.47;100.00
17054;BME280;8643;48.824;11.422;2022-12-07T12:50:15;96749.31;;;2.55;100.00
17054;BME280;8643;48.824;11.422;2022-12-07T12:53:14;96745.56;;;2.51;100.00
17054;BME280;8643;48.824;11.422;2022-12-07T12:56:27;96745.81;;;2.55;100.00
17054;BME280;8643;48.824;11.422;2022-12-07T12:59:25;96729.34;;;2.51;100.00
17054;BME280;8643;48.824;11.422;2022-12-07T13:02:20;96729.34;;;2.51;100.00
17054;BME280;8643;48.824;11.422;2022-12-07T13:04:53;96726.66;;;2.51;100.00
17054;BME280;8643;48.824;11.422;2022-12-07T13:08:00;96725.81;;;2.51;100.00
17054;BME280;8643;48.824;11.422;2022-12-07T13:10:43;96716.75;;;2.42;100.00
17054;BME280;8643;48.824;11.422;2022-12-07T13:13:35;96714.59;;;2.38;100.00
17054;BME280;8643;48.824;11.422;2022-12-07T13:16:40;96721.03;;;2.48;100.00
17054;BME280;8643;48.824;11.422;2022-12-07T13:19:59;96710.22;;;2.48;100.00
17054;BME280;8643;48.824;11.422;2022-12-07T13:22:50;96719.44;;;2.42;100.00
17054;BME280;8643;48.824;11.422;2022-12-07T13:25:38;96717.53;;;2.42;100.00
17054;BME280;8643;48.824;11.422;2022-12-07T13:28:17;96714.84;;;2.42;100.00
17054;BME280;8643;48.824;11.422;2022-12-07T13:30:58;96712.41;;;2.41;100.00
17054;BME280;8643;48.824;11.422;2022-12-07T13:33:29;96714.28;;;2.45;100.00
17054;BME280;8643;48.824;11.422;2022-12-07T13:35:58;96709.09;;;2.49;100.00
17054;BME280;8643;48.824;11.422;2022-12-07T13:38:32;96711.84;;;2.44;100.00
17054;BME280;8643;48.824;11.422;2022-12-07T13:41:13;96713.47;;;2.45;100.00